createdAt,value
2023-04-17T00:01:25.569Z,57.50
2023-04-17T00:03:58.032Z,55.60
2023-04-17T00:06:27.198Z,56.90
2023-04-17T00:08:56.268Z,69.28
2023-04-17T00:11:27.766Z,63.17
2023-04-17T00:13:56.529Z,58.80
2023-04-17T00:16:27.027Z,69.82
2023-04-17T00:18:56.762Z,67.20
2023-04-17T00:21:23.432Z,67.13
2023-04-17T00:23:50.125Z,62.97
2023-04-17T00:26:19.638Z,66.95
2023-04-17T00:28:50.274Z,65.53
2023-04-17T00:31:19.661Z,67.43
2023-04-17T00:33:48.881Z,61.95
2023-04-17T00:36:20.185Z,62.85
2023-04-17T00:38:46.945Z,68.28
2023-04-17T00:41:15.996Z,61.63
2023-04-17T00:43:42.678Z,71.45
2023-04-17T00:46:09.944Z,63.92
2023-04-17T00:48:40.951Z,64.53
2023-04-17T00:51:10.411Z,61.58
2023-04-17T00:53:39.972Z,61.28
2023-04-17T00:56:07.186Z,70.32
2023-04-17T00:58:37.157Z,80.15
2023-04-17T01:01:07.117Z,68.03
2023-04-17T01:03:34.132Z,67.22
2023-04-17T01:06:04.095Z,69.88
2023-04-17T01:08:41.487Z,70.47
2023-04-17T01:11:08.940Z,75.35
2023-04-17T01:13:50.257Z,75.82
2023-04-17T01:16:17.561Z,69.72
2023-04-17T01:18:49.598Z,70.05
2023-04-17T01:21:16.681Z,82.55
2023-04-17T01:23:52.136Z,79.75
2023-04-17T01:26:21.313Z,78.55
2023-04-17T01:28:56.522Z,83.35
2023-04-17T01:31:24.492Z,80.25
2023-04-17T01:33:53.858Z,80.03
2023-04-17T01:36:23.032Z,81.75
2023-04-17T01:38:49.750Z,79.43
2023-04-17T01:41:16.467Z,73.30
2023-04-17T01:43:45.865Z,79.38
2023-04-17T01:46:13.337Z,82.10
2023-04-17T01:48:42.325Z,78.60
2023-04-17T01:51:08.987Z,78.20
2023-04-17T01:53:36.363Z,69.68
2023-04-17T01:56:03.019Z,70.07
2023-04-17T01:58:31.010Z,70.47
2023-04-17T02:01:00.466Z,67.35
2023-04-17T02:03:27.434Z,68.22
2023-04-17T02:05:54.217Z,70.70
2023-04-17T02:08:23.653Z,73.43
2023-04-17T02:10:52.861Z,70.00
2023-04-17T02:13:19.451Z,77.18
2023-04-17T02:15:46.109Z,72.25
2023-04-17T02:18:13.196Z,64.80
2023-04-17T02:20:39.954Z,66.38
2023-04-17T02:23:07.130Z,79.05
2023-04-17T02:25:33.964Z,71.07
2023-04-17T02:28:02.803Z,70.88
2023-04-17T02:30:29.593Z,70.50
2023-04-17T02:32:57.100Z,73.03
2023-04-17T02:35:28.088Z,75.93
2023-04-17T02:37:55.082Z,76.30
2023-04-17T02:40:24.170Z,70.93
2023-04-17T02:42:50.816Z,74.60
2023-04-17T02:45:19.651Z,80.05
2023-04-17T02:47:46.376Z,78.38
2023-04-17T02:50:15.653Z,77.28
2023-04-17T02:52:42.295Z,78.30
2023-04-17T02:55:09.726Z,69.63
2023-04-17T02:57:36.483Z,73.88
2023-04-17T03:00:08.897Z,67.25
2023-04-17T03:02:36.172Z,69.10
2023-04-17T03:05:04.208Z,68.40
2023-04-17T03:07:33.352Z,68.18
2023-04-17T03:10:00.017Z,78.20
2023-04-17T03:12:26.700Z,71.72
2023-04-17T03:14:58.114Z,73.55
2023-04-17T03:17:24.783Z,77.25
2023-04-17T03:19:53.709Z,75.70
2023-04-17T03:22:20.324Z,75.85
2023-04-17T03:24:49.358Z,77.55
2023-04-17T03:27:24.201Z,77.13
2023-04-17T03:29:54.840Z,77.93
2023-04-17T03:32:21.625Z,81.00
2023-04-17T03:34:48.295Z,82.88
2023-04-17T03:37:14.925Z,79.05
2023-04-17T03:39:44.156Z,76.70
2023-04-17T03:42:14.569Z,79.72
2023-04-17T03:44:43.480Z,80.63
2023-04-17T03:47:12.662Z,77.22
2023-04-17T03:49:39.291Z,73.13
2023-04-17T03:52:06.166Z,76.45
2023-04-17T03:54:35.482Z,70.68
2023-04-17T03:57:03.479Z,75.90
2023-04-17T03:59:37.747Z,76.45
2023-04-17T04:02:07.051Z,75.85
2023-04-17T04:04:34.188Z,72.90
2023-04-17T04:07:03.691Z,78.05
2023-04-17T04:09:30.430Z,79.25
2023-04-17T04:11:57.360Z,73.05
2023-04-17T04:14:24.041Z,76.82
2023-04-17T04:16:50.865Z,74.03
2023-04-17T04:19:17.552Z,77.72
2023-04-17T04:21:45.072Z,74.85
2023-04-17T04:24:13.871Z,80.80
2023-04-17T04:26:47.311Z,82.28
2023-04-17T04:29:19.716Z,84.93
2023-04-17T04:31:46.764Z,76.80
2023-04-17T04:34:16.763Z,80.72
2023-04-17T04:36:49.852Z,78.38
2023-04-17T04:39:20.752Z,77.80
2023-04-17T04:41:50.966Z,82.85
2023-04-17T04:44:18.564Z,80.75
2023-04-17T04:46:45.786Z,80.05
2023-04-17T04:49:17.256Z,79.78
2023-04-17T04:51:46.033Z,75.63
2023-04-17T04:54:17.616Z,83.95
2023-04-17T04:56:46.838Z,74.97
2023-04-17T04:59:13.600Z,74.28
2023-04-17T05:01:40.464Z,80.57
2023-04-17T05:04:09.736Z,81.53
2023-04-17T05:06:38.669Z,78.65
2023-04-17T05:09:05.611Z,82.50
2023-04-17T05:11:33.348Z,77.10
2023-04-17T05:14:02.517Z,73.60
2023-04-17T05:16:31.334Z,77.10
2023-04-17T05:18:57.979Z,73.47
2023-04-17T05:21:24.926Z,70.45
2023-04-17T05:23:56.100Z,73.38
2023-04-17T05:26:25.066Z,65.63
2023-04-17T05:28:54.198Z,66.68
2023-04-17T05:31:22.111Z,63.58
2023-04-17T05:33:51.239Z,61.47
2023-04-17T05:36:22.704Z,56.17
2023-04-17T05:38:49.320Z,56.67
2023-04-17T05:41:18.459Z,56.80
2023-04-17T05:43:45.188Z,53.60
2023-04-17T05:46:14.265Z,53.70
2023-04-17T05:48:45.861Z,49.55
2023-04-17T05:51:12.736Z,48.92
2023-04-17T05:53:44.637Z,48.40
2023-04-17T05:56:15.990Z,42.30
2023-04-17T05:58:47.677Z,47.40
2023-04-17T06:01:17.720Z,44.22
2023-04-17T06:03:44.723Z,44.65
2023-04-17T06:06:11.914Z,47.53
2023-04-17T06:08:38.628Z,52.97
2023-04-17T06:11:05.754Z,42.35
2023-04-17T06:13:34.604Z,45.00
2023-04-17T06:16:03.485Z,46.63
2023-04-17T06:18:30.199Z,52.25
2023-04-17T06:20:56.904Z,45.70
2023-04-17T06:23:25.747Z,43.80
2023-04-17T06:25:54.542Z,44.97
2023-04-17T06:28:21.188Z,45.92
2023-04-17T06:30:48.133Z,52.78
2023-04-17T06:33:14.929Z,51.20
2023-04-17T06:35:41.629Z,53.78
2023-04-17T06:38:13.002Z,52.05
2023-04-17T06:40:39.736Z,48.97
2023-04-17T06:43:10.812Z,49.33
2023-04-17T06:45:37.540Z,49.13
2023-04-17T06:48:06.648Z,48.25
2023-04-17T06:50:33.327Z,53.70
2023-04-17T06:53:02.421Z,50.28
2023-04-17T06:55:29.074Z,50.90
2023-04-17T06:57:57.957Z,51.58
2023-04-17T07:00:29.475Z,49.55
2023-04-17T07:02:56.267Z,49.47
2023-04-17T07:05:22.990Z,50.65
2023-04-17T07:07:49.652Z,52.17
2023-04-17T07:10:19.427Z,47.60
2023-04-17T07:12:50.516Z,48.60
2023-04-17T07:15:17.395Z,48.58
2023-04-17T07:17:46.571Z,53.55
2023-04-17T07:20:13.241Z,50.13
2023-04-17T07:22:43.123Z,51.42
2023-04-17T07:25:12.117Z,47.47
2023-04-17T07:27:39.399Z,48.20
2023-04-17T07:30:08.059Z,49.33
2023-04-17T07:32:36.131Z,49.33
2023-04-17T07:35:06.346Z,48.30
2023-04-17T07:37:36.935Z,43.95
2023-04-17T07:40:10.015Z,49.92
2023-04-17T07:42:36.957Z,46.40
2023-04-17T07:45:05.019Z,54.33
2023-04-17T07:47:31.715Z,40.72
2023-04-17T07:50:00.710Z,44.17
2023-04-17T07:52:27.387Z,44.65
2023-04-17T07:54:56.581Z,46.30
2023-04-17T07:57:26.337Z,44.92
2023-04-17T07:59:55.861Z,45.45
2023-04-17T08:02:25.128Z,41.63
2023-04-17T08:04:52.208Z,43.92
2023-04-17T08:07:21.181Z,43.78
2023-04-17T08:09:47.865Z,44.60
2023-04-17T08:12:14.561Z,40.83
2023-04-17T08:14:42.006Z,41.13
2023-04-17T08:17:11.034Z,42.65
2023-04-17T08:19:37.714Z,42.75
2023-04-17T08:22:07.281Z,41.00
2023-04-17T08:24:33.957Z,37.88
2023-04-17T08:27:03.528Z,40.25
2023-04-17T08:29:30.181Z,41.55
2023-04-17T08:32:10.715Z,39.33
2023-04-17T08:34:42.875Z,40.15
2023-04-17T08:37:11.693Z,36.45
2023-04-17T08:39:38.395Z,37.33
2023-04-17T08:42:14.612Z,41.80
2023-04-17T08:44:46.570Z,39.08
2023-04-17T08:47:13.693Z,39.25
2023-04-17T08:49:43.530Z,36.38
2023-04-17T08:52:13.124Z,39.05
2023-04-17T08:54:44.387Z,38.67
2023-04-17T08:57:11.029Z,39.47
2023-04-17T08:59:37.734Z,35.47
2023-04-17T09:02:06.774Z,37.97
2023-04-17T09:04:43.853Z,37.70
2023-04-17T09:07:15.593Z,41.78
2023-04-17T09:09:56.655Z,36.58
2023-04-17T09:12:28.891Z,39.90
2023-04-17T09:14:55.898Z,36.80
2023-04-17T09:17:25.330Z,35.13
2023-04-17T09:20:09.730Z,34.83
2023-04-17T09:22:37.886Z,35.40
2023-04-17T09:25:14.742Z,35.08
2023-04-17T09:27:41.473Z,38.38
2023-04-17T09:30:08.761Z,36.60
2023-04-17T09:32:37.704Z,34.40
2023-04-17T09:35:06.066Z,36.65
2023-04-17T09:37:55.489Z,33.88
2023-04-17T09:40:26.022Z,32.72
2023-04-17T09:43:00.918Z,33.78
2023-04-17T09:45:39.769Z,24.95
2023-04-17T09:48:08.701Z,27.08
2023-04-17T09:50:39.239Z,28.10
2023-04-17T09:53:07.208Z,31.88
2023-04-17T09:55:36.427Z,29.48
2023-04-17T09:58:05.140Z,29.08
2023-04-17T10:00:32.151Z,24.85
2023-04-17T10:03:01.258Z,26.55
2023-04-17T10:05:31.362Z,25.42
2023-04-17T10:08:00.959Z,25.00
2023-04-17T10:10:31.222Z,23.52
2023-04-17T10:13:03.012Z,26.13
2023-04-17T10:15:33.763Z,24.08
2023-04-17T10:18:25.418Z,19.98
2023-04-17T10:20:53.387Z,21.02
2023-04-17T10:23:46.822Z,19.75
2023-04-17T10:26:25.496Z,19.67
2023-04-17T10:28:53.467Z,15.77
2023-04-17T10:31:21.107Z,18.30
2023-04-17T10:33:53.089Z,17.33
2023-04-17T10:36:38.004Z,20.00
2023-04-17T10:39:18.234Z,16.92
2023-04-17T10:42:04.966Z,20.30
2023-04-17T10:44:40.861Z,15.60
2023-04-17T10:50:00.721Z,18.50
2023-04-17T10:52:34.445Z,17.45
2023-04-17T10:55:14.315Z,15.63
2023-04-17T10:58:02.294Z,15.30
2023-04-17T11:00:35.796Z,18.48
2023-04-17T11:03:04.295Z,18.55
2023-04-17T11:05:31.624Z,17.65
2023-04-17T11:07:59.221Z,16.23
2023-04-17T11:10:26.413Z,15.55
2023-04-17T11:12:56.625Z,16.77
2023-04-17T11:15:28.349Z,15.70
2023-04-17T11:17:58.162Z,17.60
2023-04-17T11:20:31.789Z,17.10
2023-04-17T11:23:03.097Z,14.52
2023-04-17T11:25:31.636Z,16.27
2023-04-17T11:27:59.447Z,16.88
2023-04-17T11:30:37.657Z,13.38
2023-04-17T11:33:06.081Z,12.38
2023-04-17T11:35:37.313Z,14.80
2023-04-17T11:38:08.665Z,15.57
2023-04-17T11:40:42.477Z,13.68
2023-04-17T11:43:10.091Z,13.35
2023-04-17T11:45:37.726Z,14.48
2023-04-17T11:48:04.736Z,11.10
2023-04-17T11:50:35.141Z,13.55
2023-04-17T11:53:03.383Z,10.68
2023-04-17T11:55:34.342Z,11.90
2023-04-17T11:58:04.040Z,14.50
2023-04-17T12:00:31.806Z,12.73
2023-04-17T12:03:01.212Z,13.70
2023-04-17T12:05:29.912Z,8.75
2023-04-17T12:08:04.690Z,8.18
2023-04-17T12:10:40.018Z,10.68
2023-04-17T12:13:07.163Z,9.38
2023-04-17T12:15:35.248Z,10.30
2023-04-17T12:18:05.663Z,13.30
2023-04-17T12:20:36.092Z,8.88
2023-04-17T12:23:06.398Z,10.65
2023-04-17T12:25:35.934Z,10.15
2023-04-17T12:28:04.868Z,9.20
2023-04-17T12:30:39.634Z,7.90
2023-04-17T12:33:07.131Z,9.60
2023-04-17T12:35:33.974Z,7.85
2023-04-17T12:38:05.332Z,12.52
2023-04-17T12:40:32.910Z,8.60
2023-04-17T12:42:59.596Z,9.13
2023-04-17T12:45:26.382Z,6.55
2023-04-17T12:47:54.202Z,7.07
2023-04-17T12:50:20.936Z,7.43
2023-04-17T12:52:47.642Z,9.75
2023-04-17T12:55:18.708Z,9.27
2023-04-17T12:57:46.325Z,7.88
2023-04-17T13:00:13.476Z,6.93
2023-04-17T13:02:40.747Z,10.75
2023-04-17T13:05:07.925Z,6.63
2023-04-17T13:07:34.775Z,8.25
2023-04-17T13:10:01.635Z,7.38
2023-04-17T13:12:30.725Z,8.98
2023-04-17T13:14:57.540Z,8.60
2023-04-17T13:17:29.574Z,6.65
2023-04-17T13:19:56.326Z,8.55
2023-04-17T13:22:25.480Z,7.50
2023-04-17T13:24:52.100Z,7.80
2023-04-17T13:27:18.754Z,7.68
2023-04-17T13:29:50.207Z,8.85
2023-04-17T13:32:19.057Z,8.38
2023-04-17T13:34:47.961Z,7.78
2023-04-17T13:37:19.303Z,7.18
2023-04-17T13:39:46.098Z,9.43
2023-04-17T13:42:15.690Z,7.32
2023-04-17T13:44:42.421Z,10.88
2023-04-17T13:47:09.183Z,7.95
2023-04-17T13:49:36.132Z,6.65
2023-04-17T13:52:03.384Z,7.82
2023-04-17T13:54:32.595Z,8.52
2023-04-17T13:57:02.176Z,8.10
2023-04-17T13:59:28.829Z,7.75
2023-04-17T14:02:00.159Z,6.22
2023-04-17T14:04:27.324Z,7.78
2023-04-17T14:06:54.260Z,6.63
2023-04-17T14:09:23.664Z,8.05
2023-04-17T14:11:50.553Z,6.95
2023-04-17T14:14:19.512Z,9.75
2023-04-17T14:16:48.223Z,9.05
2023-04-17T14:19:15.302Z,7.75
2023-04-17T14:21:45.106Z,7.65
2023-04-17T14:24:14.037Z,8.57
2023-04-17T14:26:41.950Z,10.70
2023-04-17T14:29:13.511Z,8.85
2023-04-17T14:31:40.782Z,9.18
2023-04-17T14:34:09.626Z,8.23
2023-04-17T14:36:38.556Z,9.10
2023-04-17T14:39:05.296Z,9.70
2023-04-17T14:41:34.804Z,9.38
2023-04-17T14:44:03.742Z,10.20
2023-04-17T14:46:30.987Z,11.07
2023-04-17T14:48:57.745Z,8.57
2023-04-17T14:51:27.203Z,12.02
2023-04-17T14:53:56.654Z,10.43
2023-04-17T14:56:27.923Z,11.73
2023-04-17T14:58:54.693Z,9.70
2023-04-17T15:01:21.356Z,11.27
2023-04-17T15:03:48.889Z,8.23
2023-04-17T15:06:16.605Z,11.27
2023-04-17T15:08:45.995Z,9.15
2023-04-17T15:11:12.884Z,8.77
2023-04-17T15:13:42.366Z,11.65
2023-04-17T15:16:10.561Z,11.15
2023-04-17T15:18:39.150Z,9.15
2023-04-17T15:21:08.596Z,8.73
2023-04-17T15:23:35.494Z,9.93
2023-04-17T15:26:06.884Z,8.75
2023-04-17T15:28:37.296Z,7.40
2023-04-17T15:31:07.888Z,10.10
2023-04-17T15:33:37.425Z,8.27
2023-04-17T15:36:04.206Z,10.25
2023-04-17T15:38:35.244Z,9.70
2023-04-17T15:41:03.465Z,10.40
2023-04-17T15:43:30.419Z,10.35
2023-04-17T15:45:58.895Z,8.70
2023-04-17T15:48:27.832Z,7.78
2023-04-17T15:50:54.538Z,7.53
2023-04-17T15:53:21.491Z,12.18
2023-04-17T15:55:54.126Z,9.65
2023-04-17T15:58:23.103Z,12.60
2023-04-17T16:00:52.123Z,11.38
2023-04-17T16:03:19.009Z,11.02
2023-04-17T16:05:45.747Z,10.43
2023-04-17T16:08:12.479Z,10.80
2023-04-17T16:10:41.618Z,11.98
2023-04-17T16:13:08.338Z,11.32
2023-04-17T16:15:35.120Z,13.40
2023-04-17T16:18:01.855Z,13.68
2023-04-17T16:20:28.663Z,11.18
2023-04-17T16:22:57.739Z,12.07
2023-04-17T16:25:24.466Z,14.48
2023-04-17T16:27:51.098Z,14.10
2023-04-17T16:30:18.114Z,11.95
2023-04-17T16:32:45.495Z,11.80
2023-04-17T16:35:15.491Z,12.13
2023-04-17T16:37:42.128Z,10.70
2023-04-17T16:40:09.398Z,12.70
2023-04-17T16:42:38.832Z,14.30
2023-04-17T16:45:06.424Z,11.90
2023-04-17T16:47:33.237Z,12.40
2023-04-17T16:49:59.919Z,11.88
2023-04-17T16:52:31.274Z,13.00
2023-04-17T16:54:59.226Z,13.20
2023-04-17T16:57:25.880Z,16.88
2023-04-17T16:59:52.514Z,11.57
2023-04-17T17:02:19.242Z,13.10
2023-04-17T17:04:46.052Z,14.75
2023-04-17T17:07:12.832Z,14.80
2023-04-17T17:09:39.485Z,11.77
2023-04-17T17:12:11.192Z,12.05
2023-04-17T17:14:40.205Z,11.60
2023-04-17T17:17:09.083Z,15.48
2023-04-17T17:19:37.872Z,13.27
2023-04-17T17:22:04.551Z,11.57
2023-04-17T17:24:33.735Z,12.73
2023-04-17T17:27:00.603Z,11.35
2023-04-17T17:29:27.266Z,11.90
2023-04-17T17:31:53.914Z,10.65
2023-04-17T17:34:26.629Z,13.30
2023-04-17T17:36:54.094Z,10.73
2023-04-17T17:39:21.951Z,15.75
2023-04-17T17:41:49.016Z,13.35
2023-04-17T17:44:15.843Z,13.15
2023-04-17T17:46:42.691Z,14.73
2023-04-17T17:49:11.710Z,14.55
2023-04-17T17:51:38.388Z,12.23
2023-04-17T17:54:05.092Z,13.60
2023-04-17T17:56:31.781Z,13.63
2023-04-17T17:58:58.428Z,11.73
2023-04-17T18:01:25.311Z,14.85
2023-04-17T18:03:52.933Z,11.75
2023-04-17T18:06:20.240Z,14.05
2023-04-17T18:08:49.107Z,17.40
2023-04-17T18:11:18.254Z,15.82
2023-04-17T18:13:44.990Z,13.57
2023-04-17T18:16:14.208Z,13.05
2023-04-17T18:18:45.914Z,13.02
2023-04-17T18:21:15.211Z,16.10
2023-04-17T18:23:41.881Z,15.65
2023-04-17T18:26:08.500Z,14.05
2023-04-17T18:28:35.288Z,12.35
2023-04-17T18:31:04.173Z,14.52
2023-04-17T18:33:33.175Z,15.65
2023-04-17T18:35:59.827Z,16.13
2023-04-17T18:38:28.872Z,15.40
2023-04-17T18:41:01.008Z,14.13
2023-04-17T18:43:30.680Z,15.52
2023-04-17T18:45:59.512Z,14.45
2023-04-17T18:48:30.824Z,15.10
2023-04-17T18:50:59.648Z,13.82
2023-04-17T18:53:28.484Z,13.88
2023-04-17T18:55:57.866Z,14.65
2023-04-17T18:58:24.492Z,12.25
2023-04-17T19:00:51.222Z,15.40
2023-04-17T19:03:18.011Z,14.52
2023-04-17T19:05:49.523Z,15.57
2023-04-17T19:08:16.229Z,14.88
2023-04-17T19:10:42.936Z,14.73
2023-04-17T19:13:12.087Z,14.80
2023-04-17T19:15:41.113Z,18.80
2023-04-17T19:18:12.434Z,17.23
2023-04-17T19:20:41.145Z,15.77
2023-04-17T19:23:10.388Z,12.57
2023-04-17T19:25:42.923Z,17.58
2023-04-17T19:28:13.260Z,16.00
2023-04-17T19:30:40.002Z,14.55
2023-04-17T19:33:09.314Z,14.95
2023-04-17T19:35:36.027Z,19.10
2023-04-17T19:38:04.823Z,13.68
2023-04-17T19:40:31.452Z,14.18
2023-04-17T19:43:01.367Z,15.07
2023-04-17T19:45:31.698Z,17.40
2023-04-17T19:47:58.711Z,18.00
2023-04-17T19:50:29.900Z,17.30
2023-04-17T19:52:59.441Z,15.05
2023-04-17T19:55:26.288Z,15.43
2023-04-17T19:57:58.700Z,14.13
2023-04-17T20:00:25.450Z,16.25
2023-04-17T20:02:54.758Z,16.95
2023-04-17T20:05:23.992Z,14.05
2023-04-17T20:07:52.844Z,15.50
2023-04-17T20:10:19.534Z,15.98
2023-04-17T20:12:46.180Z,15.02
2023-04-17T20:15:19.669Z,16.52
2023-04-17T20:17:51.128Z,17.20
2023-04-17T20:20:20.162Z,14.25
2023-04-17T20:22:47.362Z,14.38
2023-04-17T20:25:16.519Z,13.32
2023-04-17T20:27:43.172Z,15.90
2023-04-17T20:30:10.390Z,17.13
2023-04-17T20:32:39.341Z,17.80
2023-04-17T20:35:06.514Z,17.85
2023-04-17T20:37:33.225Z,13.60
2023-04-17T20:40:10.177Z,15.93
2023-04-17T20:42:43.355Z,15.18
2023-04-17T20:45:13.592Z,17.73
2023-04-17T20:47:55.304Z,17.98
2023-04-17T20:50:25.476Z,17.17
2023-04-17T20:52:56.816Z,19.45
2023-04-17T20:55:24.200Z,19.20
2023-04-17T20:57:50.893Z,17.80
2023-04-17T21:00:22.447Z,19.45
2023-04-17T21:02:51.339Z,18.90
2023-04-17T21:05:19.229Z,16.63
2023-04-17T21:07:45.889Z,19.52
2023-04-17T21:10:12.574Z,16.20
2023-04-17T21:12:41.382Z,15.52
2023-04-17T21:15:09.436Z,14.20
2023-04-17T21:17:38.630Z,16.23
2023-04-17T21:20:08.396Z,14.85
2023-04-17T21:22:37.303Z,15.15
2023-04-17T21:25:04.242Z,16.58
2023-04-17T21:27:33.040Z,15.75
2023-04-17T21:30:07.349Z,16.25
2023-04-17T21:32:36.868Z,16.58
2023-04-17T21:35:04.362Z,16.88
2023-04-17T21:37:30.991Z,17.00
2023-04-17T21:39:59.970Z,17.00
2023-04-17T21:42:26.702Z,16.48
2023-04-17T21:44:53.336Z,16.25
2023-04-17T21:47:20.056Z,16.80
2023-04-17T21:49:49.473Z,16.48
2023-04-17T21:52:16.967Z,16.73
2023-04-17T21:54:45.797Z,17.27
2023-04-17T21:57:12.744Z,19.70
2023-04-17T21:59:41.737Z,17.83
2023-04-17T22:02:10.680Z,15.52
2023-04-17T22:04:37.345Z,18.27
2023-04-17T22:07:04.208Z,15.13
2023-04-17T22:09:30.853Z,19.67
2023-04-17T22:11:58.622Z,16.42
2023-04-17T22:14:25.290Z,17.17
2023-04-17T22:16:52.755Z,17.63
2023-04-17T22:19:19.493Z,18.75
2023-04-17T22:21:48.653Z,18.08
2023-04-17T22:24:15.431Z,18.83
2023-04-17T22:26:42.180Z,17.55
2023-04-17T22:29:08.806Z,20.92
2023-04-17T22:31:37.786Z,18.40
2023-04-17T22:34:06.957Z,21.23
2023-04-17T22:36:33.576Z,19.30
2023-04-17T22:39:04.747Z,18.60
2023-04-17T22:41:36.195Z,19.55
2023-04-17T22:44:05.450Z,20.70
2023-04-17T22:46:36.783Z,21.55
2023-04-17T22:49:05.817Z,19.20
2023-04-17T22:51:32.892Z,18.83
2023-04-17T22:54:11.458Z,19.63
2023-04-17T22:56:48.250Z,19.40
2023-04-17T22:59:17.095Z,19.83
2023-04-17T23:01:43.743Z,20.63
2023-04-17T23:04:15.798Z,21.88
2023-04-17T23:06:42.581Z,22.48
2023-04-17T23:09:09.279Z,18.73
2023-04-17T23:11:36.005Z,20.27
2023-04-17T23:14:04.919Z,21.60
2023-04-17T23:16:34.153Z,19.20
2023-04-17T23:19:02.979Z,17.70
2023-04-17T23:21:32.120Z,16.75
2023-04-17T23:23:58.868Z,19.10
2023-04-17T23:26:30.199Z,21.75
2023-04-17T23:28:57.887Z,18.73
2023-04-17T23:31:24.589Z,17.90
2023-04-17T23:33:53.667Z,19.02
2023-04-17T23:36:22.470Z,17.85
2023-04-17T23:38:49.158Z,21.15
2023-04-17T23:41:18.204Z,17.33
2023-04-17T23:43:44.812Z,17.90
2023-04-17T23:46:16.442Z,18.73
2023-04-17T23:48:43.109Z,16.90
2023-04-17T23:51:09.720Z,16.10
2023-04-17T23:53:36.326Z,17.52
2023-04-17T23:56:02.981Z,15.55
2023-04-17T23:58:29.703Z,20.17
